createdAt,value
2023-04-26T00:00:11.347Z,6.0450
2023-04-26T00:01:12.042Z,6.0432
2023-04-26T00:02:12.797Z,6.0891
2023-04-26T00:03:13.628Z,6.1266
2023-04-26T00:04:14.817Z,6.1118
2023-04-26T00:05:15.742Z,6.1336
2023-04-26T00:06:16.455Z,6.2138
2023-04-26T00:07:17.138Z,6.1987
2023-04-26T00:08:17.776Z,6.1958
2023-04-26T00:09:18.505Z,6.1851
2023-04-26T00:10:19.171Z,6.1894
2023-04-26T00:11:19.835Z,6.2054
2023-04-26T00:12:20.542Z,6.2488
2023-04-26T00:13:21.260Z,6.2710
2023-04-26T00:14:21.900Z,6.2940
2023-04-26T00:15:22.584Z,6.3229
2023-04-26T00:16:23.255Z,6.3079
2023-04-26T00:17:23.896Z,6.2991
2023-04-26T00:18:24.516Z,6.3326
2023-04-26T00:19:25.159Z,6.3026
2023-04-26T00:20:25.787Z,6.2635
2023-04-26T00:21:26.439Z,6.2835
2023-04-26T00:22:27.052Z,6.2357
2023-04-26T00:23:27.730Z,6.3234
2023-04-26T00:24:28.468Z,6.3386
2023-04-26T00:25:29.130Z,6.2867
2023-04-26T00:26:29.773Z,6.2742
2023-04-26T00:27:30.430Z,6.2646
2023-04-26T00:28:31.045Z,6.2520
2023-04-26T00:29:31.748Z,6.2698
2023-04-26T00:30:32.445Z,6.2322
2023-04-26T00:31:33.107Z,6.2221
2023-04-26T00:32:33.751Z,6.2227
2023-04-26T00:33:34.475Z,6.2196
2023-04-26T00:34:35.167Z,6.2312
2023-04-26T00:35:35.834Z,6.2367
2023-04-26T00:36:36.608Z,6.2051
2023-04-26T00:37:37.336Z,6.2629
2023-04-26T00:38:37.960Z,6.2458
2023-04-26T00:39:38.700Z,6.1631
2023-04-26T00:40:39.374Z,6.2209
2023-04-26T00:41:40.084Z,6.2463
2023-04-26T00:42:40.741Z,6.2776
2023-04-26T00:43:41.426Z,6.2218
2023-04-26T00:44:42.110Z,6.1742
2023-04-26T00:45:42.839Z,6.1894
2023-04-26T00:46:43.471Z,6.1840
2023-04-26T00:47:44.162Z,6.1951
2023-04-26T00:48:44.790Z,6.1692
2023-04-26T00:49:45.483Z,6.1880
2023-04-26T00:50:46.159Z,6.1822
2023-04-26T00:51:46.829Z,6.2599
2023-04-26T00:52:47.558Z,6.2873
2023-04-26T00:53:48.210Z,6.3189
2023-04-26T00:54:48.939Z,6.3469
2023-04-26T00:55:49.661Z,6.3706
2023-04-26T00:56:50.348Z,6.3792
2023-04-26T00:57:51.000Z,6.3413
2023-04-26T00:58:51.870Z,6.3904
2023-04-26T00:59:52.828Z,6.3735
2023-04-26T01:00:53.811Z,6.3369
2023-04-26T01:01:54.530Z,6.3389
2023-04-26T01:02:55.314Z,6.3073
2023-04-26T01:03:56.131Z,6.2926
2023-04-26T01:04:57.037Z,6.3212
2023-04-26T01:05:57.688Z,6.2963
2023-04-26T01:06:58.390Z,6.2945
2023-04-26T01:07:59.102Z,6.2608
2023-04-26T01:08:59.773Z,6.2317
2023-04-26T01:10:00.464Z,6.2430
2023-04-26T01:11:01.157Z,6.2267
2023-04-26T01:12:01.867Z,6.2312
2023-04-26T01:13:02.582Z,6.2526
2023-04-26T01:14:03.257Z,6.2674
2023-04-26T01:15:03.978Z,6.2825
2023-04-26T01:16:04.694Z,6.2602
2023-04-26T01:17:05.340Z,6.2812
2023-04-26T01:18:06.093Z,6.2775
2023-04-26T01:19:06.735Z,6.2641
2023-04-26T01:20:07.422Z,6.2641
2023-04-26T01:21:08.126Z,6.2854
2023-04-26T01:22:08.873Z,6.2706
2023-04-26T01:23:09.535Z,6.2493
2023-04-26T01:24:10.209Z,6.2457
2023-04-26T01:25:10.898Z,6.2357
2023-04-26T01:26:11.595Z,6.1965
2023-04-26T01:27:12.230Z,6.1497
2023-04-26T01:28:12.878Z,6.1204
2023-04-26T01:29:13.598Z,6.0931
2023-04-26T01:30:14.361Z,6.0449
2023-04-26T01:31:15.030Z,5.9816
2023-04-26T01:32:15.734Z,5.9708
2023-04-26T01:33:16.472Z,5.9791
2023-04-26T01:34:17.192Z,6.0168
2023-04-26T01:35:17.916Z,5.9393
2023-04-26T01:36:18.565Z,5.9030
2023-04-26T01:37:19.231Z,5.8817
2023-04-26T01:38:19.963Z,5.9201
2023-04-26T01:39:20.603Z,5.9249
2023-04-26T01:40:21.358Z,5.8966
2023-04-26T01:41:21.984Z,5.8611
2023-04-26T01:42:22.689Z,5.8269
2023-04-26T01:43:23.388Z,5.8264
2023-04-26T01:44:24.053Z,5.8418
2023-04-26T01:45:24.739Z,5.8290
2023-04-26T01:46:25.442Z,5.8105
2023-04-26T01:47:26.121Z,5.7995
2023-04-26T01:48:26.784Z,5.7978
2023-04-26T01:49:27.455Z,5.8120
2023-04-26T01:50:28.122Z,5.7711
2023-04-26T01:51:28.962Z,5.7899
2023-04-26T01:52:29.784Z,5.7509
2023-04-26T01:53:30.531Z,5.7412
2023-04-26T01:54:31.189Z,5.7461
2023-04-26T01:55:31.855Z,5.7354
2023-04-26T01:56:32.666Z,5.7865
2023-04-26T01:57:33.407Z,5.8324
2023-04-26T01:58:34.100Z,5.8420
2023-04-26T01:59:34.737Z,5.8325
2023-04-26T02:00:35.454Z,5.7560
2023-04-26T02:01:36.118Z,5.7393
2023-04-26T02:02:36.945Z,5.6861
2023-04-26T02:03:37.844Z,5.6838
2023-04-26T02:04:38.565Z,5.6155
2023-04-26T02:05:39.194Z,5.5781
2023-04-26T02:06:39.896Z,5.5647
2023-04-26T02:07:40.609Z,5.5077
2023-04-26T02:08:41.247Z,5.5062
2023-04-26T02:09:41.943Z,5.4588
2023-04-26T02:10:42.659Z,5.4241
2023-04-26T02:11:43.358Z,5.3915
2023-04-26T02:12:44.066Z,5.4401
2023-04-26T02:13:44.711Z,5.4522
2023-04-26T02:14:45.361Z,5.5021
2023-04-26T02:15:46.127Z,5.5310
2023-04-26T02:16:46.881Z,5.5605
2023-04-26T02:17:47.547Z,5.5800
2023-04-26T02:18:48.289Z,5.5647
2023-04-26T02:19:48.939Z,5.5882
2023-04-26T02:20:49.650Z,5.6214
2023-04-26T02:21:50.337Z,5.6661
2023-04-26T02:22:50.998Z,5.7059
2023-04-26T02:23:51.629Z,5.7038
2023-04-26T02:24:52.319Z,5.7600
2023-04-26T02:25:52.987Z,5.7659
2023-04-26T02:26:53.682Z,5.7657
2023-04-26T02:27:54.357Z,5.7197
2023-04-26T02:28:55.159Z,5.7375
2023-04-26T02:29:55.846Z,5.7091
2023-04-26T02:30:56.556Z,5.6998
2023-04-26T02:31:57.377Z,5.6759
2023-04-26T02:32:58.092Z,5.6783
2023-04-26T02:33:58.778Z,5.6686
2023-04-26T02:34:59.527Z,5.6242
2023-04-26T02:36:00.186Z,5.6066
2023-04-26T02:37:00.912Z,5.5600
2023-04-26T02:38:01.632Z,5.5306
2023-04-26T02:39:02.325Z,5.5408
2023-04-26T02:40:03.054Z,5.5418
2023-04-26T02:41:03.940Z,5.5261
2023-04-26T02:42:04.708Z,5.5365
2023-04-26T02:43:05.385Z,5.5309
2023-04-26T02:44:06.091Z,5.5372
2023-04-26T02:45:06.854Z,5.5282
2023-04-26T02:46:07.563Z,5.5150
2023-04-26T02:47:08.321Z,5.5717
2023-04-26T02:48:09.083Z,5.4848
2023-04-26T02:49:09.750Z,5.5348
2023-04-26T02:50:10.420Z,5.6654
2023-04-26T02:51:11.104Z,5.6289
2023-04-26T02:52:11.814Z,5.7083
2023-04-26T02:53:12.514Z,5.6984
2023-04-26T02:54:13.252Z,5.6598
2023-04-26T02:55:13.928Z,5.6832
2023-04-26T02:56:14.620Z,5.6910
2023-04-26T02:57:15.287Z,5.7067
2023-04-26T02:58:16.000Z,5.7131
2023-04-26T02:59:16.673Z,5.6243
2023-04-26T03:00:17.399Z,5.5770
2023-04-26T03:01:18.159Z,5.5859
2023-04-26T03:02:18.970Z,5.5679
2023-04-26T03:03:19.910Z,5.5870
2023-04-26T03:04:21.030Z,5.5564
2023-04-26T03:05:21.705Z,5.6130
2023-04-26T03:06:22.428Z,5.6435
2023-04-26T03:07:23.138Z,5.6237
2023-04-26T03:08:23.988Z,5.6405
2023-04-26T03:09:24.606Z,5.6440
2023-04-26T03:10:25.285Z,5.6461
2023-04-26T03:11:26.011Z,5.6269
2023-04-26T03:12:26.123Z,5.6263
2023-04-26T03:13:26.852Z,5.6484
2023-04-26T03:14:27.528Z,5.6718
2023-04-26T03:15:28.216Z,5.6764
2023-04-26T03:16:28.969Z,5.7042
2023-04-26T03:17:29.625Z,5.6980
2023-04-26T03:18:30.363Z,5.7171
2023-04-26T03:19:31.020Z,5.7782
2023-04-26T03:20:31.685Z,5.7626
2023-04-26T03:21:32.357Z,5.7591
2023-04-26T03:22:33.036Z,5.7371
2023-04-26T03:23:33.760Z,5.6873
2023-04-26T03:24:34.448Z,5.6573
2023-04-26T03:25:35.154Z,5.7274
2023-04-26T03:26:35.838Z,5.7274
2023-04-26T03:27:36.506Z,5.7202
2023-04-26T03:28:37.203Z,5.7676
2023-04-26T03:29:37.920Z,5.7489
2023-04-26T03:30:38.621Z,5.7637
2023-04-26T03:31:39.461Z,5.7498
2023-04-26T03:32:40.185Z,5.7185
2023-04-26T03:33:40.787Z,5.7247
2023-04-26T03:34:41.490Z,5.7134
2023-04-26T03:35:42.192Z,5.7080
2023-04-26T03:36:42.927Z,5.7006
2023-04-26T03:37:43.575Z,5.7154
2023-04-26T03:38:44.247Z,5.7242
2023-04-26T03:39:44.952Z,5.7765
2023-04-26T03:40:45.684Z,5.7018
2023-04-26T03:41:46.367Z,5.6935
2023-04-26T03:42:47.122Z,5.6936
2023-04-26T03:43:47.767Z,5.6665
2023-04-26T03:44:48.466Z,5.6743
2023-04-26T03:45:49.148Z,5.6754
2023-04-26T03:46:49.902Z,5.6717
2023-04-26T03:47:50.693Z,5.6637
2023-04-26T03:48:51.703Z,5.6523
2023-04-26T03:49:52.808Z,5.6510
2023-04-26T03:50:53.505Z,5.6508
2023-04-26T03:51:54.181Z,5.6541
2023-04-26T03:52:54.882Z,5.6259
2023-04-26T03:53:55.593Z,5.6527
2023-04-26T03:54:56.264Z,5.6243
2023-04-26T03:55:56.936Z,5.5832
2023-04-26T03:56:57.619Z,5.5577
2023-04-26T03:57:58.534Z,5.5021
2023-04-26T03:58:59.173Z,5.4931
2023-04-26T03:59:59.934Z,5.4988
2023-04-26T04:01:00.571Z,5.4582
2023-04-26T04:02:01.267Z,5.4559
2023-04-26T04:03:02.016Z,5.4176
2023-04-26T04:04:02.935Z,5.3944
2023-04-26T04:05:03.853Z,5.3583
2023-04-26T04:06:04.620Z,5.3647
2023-04-26T04:07:05.308Z,5.3825
2023-04-26T04:08:06.017Z,5.3656
2023-04-26T04:09:06.728Z,5.3971
2023-04-26T04:10:07.401Z,5.4144
2023-04-26T04:11:08.137Z,5.4300
2023-04-26T04:12:08.834Z,5.3671
2023-04-26T04:13:09.547Z,5.4038
2023-04-26T04:14:10.302Z,5.3850
2023-04-26T04:15:10.998Z,5.3857
2023-04-26T04:16:11.756Z,5.3680
2023-04-26T04:17:12.428Z,5.3463
2023-04-26T04:18:13.177Z,5.3357
2023-04-26T04:19:13.888Z,5.2721
2023-04-26T04:20:14.622Z,5.3126
2023-04-26T04:21:15.347Z,5.3548
2023-04-26T04:22:16.071Z,5.3575
2023-04-26T04:23:16.787Z,5.3166
2023-04-26T04:24:17.429Z,5.1859
2023-04-26T04:25:18.108Z,5.2379
2023-04-26T04:26:18.754Z,5.2580
2023-04-26T04:27:19.523Z,5.2753
2023-04-26T04:28:20.174Z,5.3026
2023-04-26T04:29:20.875Z,5.3533
2023-04-26T04:30:21.584Z,5.3936
2023-04-26T04:31:22.363Z,5.3864
2023-04-26T04:32:23.181Z,5.4099
2023-04-26T04:33:23.878Z,5.4267
2023-04-26T04:34:24.575Z,5.4553
2023-04-26T04:35:25.251Z,5.3867
2023-04-26T04:36:25.924Z,5.4537
2023-04-26T04:37:26.615Z,5.4576
2023-04-26T04:38:27.315Z,5.4567
2023-04-26T04:39:27.953Z,5.4990
2023-04-26T04:40:28.663Z,5.4843
2023-04-26T04:41:29.404Z,5.4305
2023-04-26T04:42:30.087Z,5.4510
2023-04-26T04:43:31.087Z,5.4722
2023-04-26T04:44:31.885Z,5.4638
2023-04-26T04:45:32.574Z,5.4932
2023-04-26T04:46:33.312Z,5.5679
2023-04-26T04:47:34.247Z,5.6207
2023-04-26T04:48:34.995Z,5.5070
2023-04-26T04:49:35.710Z,5.5155
2023-04-26T04:50:36.394Z,5.5711
2023-04-26T04:51:37.122Z,5.6037
2023-04-26T04:52:37.923Z,5.5990
2023-04-26T04:53:38.638Z,5.6104
2023-04-26T04:54:39.250Z,5.6226
2023-04-26T04:55:39.980Z,5.6621
2023-04-26T04:56:40.622Z,5.6580
2023-04-26T04:57:43.117Z,5.5893
2023-04-26T04:58:43.948Z,5.6166
2023-04-26T04:59:44.737Z,5.6218
2023-04-26T05:00:45.412Z,5.6478
2023-04-26T05:01:46.134Z,5.5998
2023-04-26T05:02:46.951Z,5.5867
2023-04-26T05:03:47.776Z,5.5968
2023-04-26T05:04:48.541Z,5.6069
2023-04-26T05:05:49.294Z,5.5792
2023-04-26T05:06:50.039Z,5.5809
2023-04-26T05:07:50.900Z,5.5760
2023-04-26T05:08:51.628Z,5.5968
2023-04-26T05:09:52.325Z,5.5698
2023-04-26T05:10:52.958Z,5.6143
2023-04-26T05:11:53.620Z,5.6177
2023-04-26T05:12:54.340Z,5.6694
2023-04-26T05:13:55.592Z,5.7196
2023-04-26T05:14:56.699Z,5.7349
2023-04-26T05:15:57.503Z,5.6641
2023-04-26T05:16:58.205Z,5.6891
2023-04-26T05:17:58.966Z,5.6883
2023-04-26T05:18:59.670Z,5.7200
2023-04-26T05:20:00.494Z,5.7350
2023-04-26T05:21:01.201Z,5.6877
2023-04-26T05:22:01.907Z,5.6476
2023-04-26T05:23:02.626Z,5.6328
2023-04-26T05:24:03.363Z,5.6922
2023-04-26T05:25:04.064Z,5.6379
2023-04-26T05:26:04.747Z,5.6578
2023-04-26T05:27:05.443Z,5.6377
2023-04-26T05:28:06.144Z,5.6922
2023-04-26T05:29:06.811Z,5.7108
2023-04-26T05:30:07.454Z,5.6955
2023-04-26T05:31:10.632Z,5.6631
2023-04-26T05:32:09.354Z,5.6837
2023-04-26T05:33:10.073Z,5.6303
2023-04-26T05:34:10.743Z,5.6439
2023-04-26T05:35:11.397Z,5.6945
2023-04-26T05:36:12.083Z,5.7310
2023-04-26T05:37:12.742Z,5.7401
2023-04-26T05:38:13.485Z,5.8226
2023-04-26T05:39:14.157Z,5.8046
2023-04-26T05:40:14.837Z,5.8503
2023-04-26T05:41:15.570Z,5.8883
2023-04-26T05:42:17.855Z,5.9113
2023-04-26T05:43:19.136Z,5.9012
2023-04-26T05:44:19.928Z,5.9126
2023-04-26T05:45:20.626Z,5.9269
2023-04-26T05:46:21.607Z,5.8696
2023-04-26T05:47:22.613Z,5.8755
2023-04-26T05:48:23.331Z,5.8701
2023-04-26T05:49:24.017Z,5.8638
2023-04-26T05:50:24.749Z,5.9201
2023-04-26T05:51:25.456Z,5.9364
2023-04-26T05:52:26.179Z,6.0095
2023-04-26T05:53:26.923Z,5.9817
2023-04-26T05:54:27.628Z,5.8261
2023-04-26T05:55:28.367Z,5.9147
2023-04-26T05:56:29.121Z,6.0130
2023-04-26T05:57:29.943Z,5.9440
2023-04-26T05:58:30.662Z,5.9775
2023-04-26T05:59:31.376Z,6.0245
2023-04-26T06:00:32.108Z,6.0371
2023-04-26T06:01:32.873Z,6.0153
2023-04-26T06:02:33.876Z,6.0850
2023-04-26T06:03:35.151Z,6.0918
2023-04-26T06:04:36.191Z,6.0895
2023-04-26T06:05:36.944Z,5.8239
2023-04-26T06:06:37.785Z,5.7265
2023-04-26T06:07:38.499Z,5.7163
2023-04-26T06:08:39.229Z,5.7231
2023-04-26T06:09:39.935Z,5.7427
2023-04-26T06:10:40.673Z,5.8604
2023-04-26T06:11:41.321Z,5.9976
2023-04-26T06:12:42.056Z,6.0096
2023-04-26T06:13:43.126Z,6.0893
2023-04-26T06:14:43.946Z,6.1438
2023-04-26T06:15:44.605Z,6.1207
2023-04-26T06:16:45.428Z,6.1576
2023-04-26T06:17:46.132Z,5.8950
2023-04-26T06:18:46.902Z,5.8544
2023-04-26T06:19:47.698Z,5.9296
2023-04-26T06:20:48.440Z,6.0931
2023-04-26T06:21:49.169Z,6.1535
2023-04-26T06:22:49.939Z,6.1551
2023-04-26T06:23:50.942Z,6.2101
2023-04-26T06:24:52.004Z,6.0250
2023-04-26T06:25:52.669Z,5.8156
2023-04-26T06:26:53.414Z,5.8026
2023-04-26T06:27:54.163Z,5.5952
2023-04-26T06:28:54.890Z,5.6219
2023-04-26T06:29:55.605Z,5.7018
2023-04-26T06:30:56.450Z,5.8539
2023-04-26T06:31:57.173Z,5.9148
2023-04-26T06:32:58.032Z,6.1142
2023-04-26T06:33:58.779Z,6.1781
2023-04-26T06:34:59.509Z,6.2454
2023-04-26T06:36:00.223Z,6.1140
2023-04-26T06:37:00.994Z,5.9178
2023-04-26T06:38:01.689Z,6.0135
2023-04-26T06:39:02.419Z,6.0359
2023-04-26T06:40:03.124Z,5.9943
2023-04-26T06:41:03.863Z,6.1095
2023-04-26T06:42:04.633Z,6.2829
2023-04-26T06:43:05.370Z,5.9674
2023-04-26T06:44:06.126Z,5.9544
2023-04-26T06:45:06.881Z,6.0902
2023-04-26T06:46:07.602Z,6.0176
2023-04-26T06:47:08.311Z,6.0857
2023-04-26T06:48:09.098Z,6.0710
2023-04-26T06:49:09.870Z,6.1574
2023-04-26T06:50:10.614Z,6.1991
2023-04-26T06:51:11.390Z,6.1219
2023-04-26T06:52:12.215Z,5.9331
2023-04-26T06:53:12.922Z,5.8678
2023-04-26T06:54:13.708Z,6.0335
2023-04-26T06:55:14.442Z,6.2738
2023-04-26T06:56:15.133Z,6.3853
2023-04-26T06:57:15.874Z,6.5596
2023-04-26T06:58:16.824Z,6.6664
2023-04-26T06:59:17.572Z,6.7190
2023-04-26T07:00:18.317Z,6.7436
2023-04-26T07:01:19.069Z,6.4015
2023-04-26T07:02:20.068Z,6.4236
2023-04-26T07:03:21.033Z,6.6199
2023-04-26T07:04:22.047Z,6.6011
2023-04-26T07:05:22.911Z,6.6706
2023-04-26T07:06:23.677Z,6.7691
2023-04-26T07:07:24.355Z,6.9607
2023-04-26T07:08:25.100Z,7.0216
2023-04-26T07:09:25.804Z,7.0310
2023-04-26T07:10:26.535Z,7.1035
2023-04-26T07:11:27.270Z,7.0766
2023-04-26T07:12:27.960Z,7.0576
2023-04-26T07:13:28.658Z,7.0028
2023-04-26T07:14:29.343Z,6.9798
2023-04-26T07:15:30.041Z,7.0127
2023-04-26T07:16:30.803Z,6.7488
2023-04-26T07:17:31.600Z,6.7082
2023-04-26T07:18:32.323Z,6.8633
2023-04-26T07:19:33.093Z,6.7585
2023-04-26T07:20:33.871Z,6.6613
2023-04-26T07:21:34.570Z,6.4904
2023-04-26T07:22:35.296Z,6.6175
2023-04-26T07:23:36.090Z,6.5102
2023-04-26T07:24:36.774Z,6.7379
2023-04-26T07:25:37.488Z,6.9563
2023-04-26T07:26:38.208Z,6.9293
2023-04-26T07:27:38.967Z,7.0753
2023-04-26T07:28:39.688Z,7.0133
2023-04-26T07:29:40.435Z,7.0888
2023-04-26T07:30:41.145Z,7.1679
2023-04-26T07:31:41.817Z,7.4109
2023-04-26T07:32:42.659Z,7.4523
2023-04-26T07:33:43.505Z,7.4598
2023-04-26T07:34:44.251Z,7.5713
2023-04-26T07:35:44.988Z,7.6959
2023-04-26T07:36:45.705Z,7.4263
2023-04-26T07:37:46.412Z,7.2988
2023-04-26T07:38:47.179Z,7.4190
2023-04-26T07:39:47.837Z,7.4398
2023-04-26T07:40:48.567Z,7.4988
2023-04-26T07:41:49.238Z,7.5320
2023-04-26T07:42:49.975Z,7.5675
2023-04-26T07:43:50.882Z,7.7568
2023-04-26T07:44:51.973Z,7.8384
2023-04-26T07:45:52.727Z,7.9253
2023-04-26T07:46:53.416Z,7.6637
2023-04-26T07:47:54.781Z,7.5211
2023-04-26T07:48:55.884Z,7.3803
2023-04-26T07:49:56.603Z,7.4371
2023-04-26T07:50:57.327Z,7.4162
2023-04-26T07:51:58.023Z,7.5327
2023-04-26T07:52:58.769Z,7.6148
2023-04-26T07:53:59.440Z,7.4355
2023-04-26T07:55:00.161Z,7.5130
2023-04-26T07:56:00.882Z,7.7337
2023-04-26T07:57:01.636Z,7.6755
2023-04-26T07:58:02.314Z,7.6358
2023-04-26T07:59:03.053Z,7.7753
2023-04-26T08:00:03.744Z,7.9095
2023-04-26T08:01:04.443Z,7.9905
2023-04-26T08:02:05.199Z,8.0004
2023-04-26T08:03:06.108Z,7.9344
2023-04-26T08:04:07.435Z,7.8470
2023-04-26T08:05:08.445Z,7.9706
2023-04-26T08:06:09.233Z,7.9853
2023-04-26T08:07:09.968Z,7.8059
2023-04-26T08:08:10.616Z,7.9450
2023-04-26T08:09:12.499Z,7.9634
2023-04-26T08:10:13.331Z,7.9317
2023-04-26T08:11:14.082Z,7.8751
2023-04-26T08:12:14.830Z,7.8207
2023-04-26T08:13:15.509Z,7.7874
2023-04-26T08:14:16.399Z,7.7488
2023-04-26T08:15:17.103Z,7.7306
2023-04-26T08:16:17.830Z,7.8356
2023-04-26T08:17:18.568Z,8.2084
2023-04-26T08:18:19.292Z,8.2822
2023-04-26T08:19:20.069Z,8.2171
2023-04-26T08:20:20.769Z,8.2099
2023-04-26T08:21:21.510Z,8.2504
2023-04-26T08:22:22.254Z,8.3517
2023-04-26T08:23:22.983Z,8.4108
2023-04-26T08:24:23.884Z,8.2739
2023-04-26T08:25:24.768Z,8.1738
2023-04-26T08:26:25.494Z,8.1343
2023-04-26T08:27:26.236Z,8.3153
2023-04-26T08:28:26.925Z,8.4461
2023-04-26T08:29:27.684Z,8.5004
2023-04-26T08:30:28.411Z,8.5619
2023-04-26T08:31:29.256Z,8.5639
2023-04-26T08:32:30.066Z,8.5744
2023-04-26T08:33:30.762Z,8.6161
2023-04-26T08:34:31.505Z,8.5636
2023-04-26T08:35:32.271Z,8.5321
2023-04-26T08:36:32.962Z,8.5453
2023-04-26T08:37:33.660Z,8.4114
2023-04-26T08:38:34.426Z,8.4991
2023-04-26T08:39:35.160Z,8.5808
2023-04-26T08:40:35.885Z,8.4069
2023-04-26T08:41:36.595Z,8.4276
2023-04-26T08:42:38.002Z,8.2431
2023-04-26T08:43:38.976Z,8.4583
2023-04-26T08:44:39.674Z,8.6890
2023-04-26T08:45:40.495Z,8.5521
2023-04-26T08:46:41.226Z,8.6089
2023-04-26T08:47:42.022Z,8.7746
2023-04-26T08:48:42.727Z,8.6354
2023-04-26T08:49:43.443Z,8.4883
2023-04-26T08:50:44.109Z,8.4205
2023-04-26T08:51:44.855Z,8.5562
2023-04-26T08:52:45.632Z,8.6447
2023-04-26T08:53:46.298Z,8.9273
2023-04-26T08:54:47.036Z,8.9783
2023-04-26T08:55:47.724Z,8.8636
2023-04-26T08:56:48.415Z,8.9170
2023-04-26T08:57:49.105Z,8.7787
2023-04-26T08:58:49.790Z,8.7254
2023-04-26T08:59:50.524Z,8.7801
2023-04-26T09:00:51.383Z,8.8125
2023-04-26T09:01:52.119Z,8.4557
2023-04-26T09:02:53.197Z,8.5190
2023-04-26T09:03:54.585Z,8.5487
2023-04-26T09:04:55.973Z,8.7364
2023-04-26T09:05:56.930Z,8.7305
2023-04-26T09:06:57.652Z,8.8670
2023-04-26T09:07:58.344Z,8.9086
2023-04-26T09:08:59.036Z,9.2705
2023-04-26T09:09:59.840Z,9.2996
2023-04-26T09:11:00.531Z,9.4160
2023-04-26T09:12:01.230Z,9.1934
2023-04-26T09:13:01.957Z,9.1004
2023-04-26T09:14:02.662Z,9.3544
2023-04-26T09:15:03.372Z,9.4699
2023-04-26T09:16:05.267Z,9.7472
2023-04-26T09:17:06.323Z,9.8478
2023-04-26T09:18:07.043Z,9.8793
2023-04-26T09:19:07.769Z,9.8966
2023-04-26T09:20:08.608Z,9.8026
2023-04-26T09:21:09.305Z,9.9937
2023-04-26T09:22:10.026Z,9.7930
2023-04-26T09:23:10.736Z,9.6834
2023-04-26T09:24:11.404Z,9.4715
2023-04-26T09:25:12.103Z,9.4757
2023-04-26T09:26:12.791Z,9.6251
2023-04-26T09:27:13.509Z,9.7757
2023-04-26T09:28:14.182Z,10.1399
2023-04-26T09:29:14.970Z,10.2326
2023-04-26T09:30:15.665Z,10.0398
2023-04-26T09:31:16.399Z,9.9721
2023-04-26T09:32:17.079Z,10.1863
2023-04-26T09:33:17.897Z,10.4383
2023-04-26T09:34:18.568Z,10.5742
2023-04-26T09:35:19.278Z,10.6925
2023-04-26T09:36:19.946Z,10.9391
2023-04-26T09:37:20.627Z,10.7951
2023-04-26T09:38:21.364Z,10.0963
2023-04-26T09:39:22.031Z,10.3406
2023-04-26T09:40:22.788Z,10.4688
2023-04-26T09:41:23.518Z,10.5470
2023-04-26T09:42:24.192Z,10.5909
2023-04-26T09:43:24.826Z,10.3934
2023-04-26T09:44:25.469Z,10.4124
2023-04-26T09:45:26.119Z,10.4693
2023-04-26T09:46:26.843Z,10.3757
2023-04-26T09:47:27.474Z,10.8175
2023-04-26T09:48:28.113Z,10.6533
2023-04-26T09:49:28.766Z,10.4167
2023-04-26T09:50:29.459Z,10.4141
2023-04-26T09:51:30.145Z,10.4077
2023-04-26T09:52:30.792Z,10.5779
2023-04-26T09:53:31.434Z,10.4329
2023-04-26T09:54:32.046Z,10.3733
2023-04-26T09:55:35.468Z,10.4141
2023-04-26T09:56:33.819Z,10.4595
2023-04-26T09:57:34.472Z,10.7055
2023-04-26T09:58:35.093Z,10.7255
2023-04-26T09:59:35.725Z,10.7341
2023-04-26T10:00:36.386Z,11.0101
2023-04-26T10:01:37.088Z,10.8974
2023-04-26T10:02:37.808Z,10.6074
2023-04-26T10:03:38.798Z,10.6102
2023-04-26T10:04:39.788Z,10.3108
2023-04-26T10:05:40.455Z,10.2001
2023-04-26T10:06:41.147Z,10.5874
2023-04-26T10:07:41.875Z,10.8371
2023-04-26T10:08:42.570Z,10.9132
2023-04-26T10:09:43.208Z,11.0222
2023-04-26T10:10:43.929Z,11.0511
2023-04-26T10:11:44.576Z,10.5296
2023-04-26T10:12:45.264Z,10.3762
2023-04-26T10:13:45.991Z,10.6060
2023-04-26T10:14:46.694Z,10.5224
2023-04-26T10:15:47.406Z,10.8936
2023-04-26T10:16:48.112Z,10.8815
2023-04-26T10:17:50.239Z,10.7237
2023-04-26T10:18:50.185Z,10.9174
2023-04-26T10:19:50.939Z,10.6226
2023-04-26T10:20:51.609Z,10.6858
2023-04-26T10:21:52.289Z,10.6164
2023-04-26T10:22:52.963Z,10.9218
2023-04-26T10:23:53.700Z,10.9566
2023-04-26T10:24:54.391Z,11.0795
2023-04-26T10:25:55.082Z,11.1766
2023-04-26T10:26:55.810Z,11.3971
2023-04-26T10:27:56.525Z,11.6498
2023-04-26T10:29:02.098Z,11.6393
2023-04-26T10:29:58.330Z,11.5032
2023-04-26T10:30:58.996Z,11.0878
2023-04-26T10:31:59.653Z,10.9508
2023-04-26T10:33:00.331Z,11.4737
2023-04-26T10:34:00.948Z,11.8835
2023-04-26T10:35:01.621Z,12.1799
2023-04-26T10:36:02.260Z,12.2084
2023-04-26T10:37:02.995Z,12.3571
2023-04-26T10:38:03.638Z,12.5705
2023-04-26T10:39:04.261Z,12.8220
2023-04-26T10:40:04.863Z,12.8828
2023-04-26T10:41:05.545Z,12.6348
2023-04-26T10:42:06.171Z,12.4123
2023-04-26T10:43:06.806Z,11.9656
2023-04-26T10:44:07.421Z,12.0021
2023-04-26T10:45:08.054Z,12.3182
2023-04-26T10:46:08.695Z,12.6994
2023-04-26T10:47:09.284Z,12.4711
2023-04-26T10:48:09.964Z,12.0112
2023-04-26T10:49:10.589Z,11.8309
2023-04-26T10:50:11.215Z,11.7503
2023-04-26T10:51:11.958Z,11.9633
2023-04-26T10:52:12.554Z,12.0125
2023-04-26T10:53:13.198Z,12.3261
2023-04-26T10:54:13.836Z,12.2727
2023-04-26T10:55:14.469Z,12.0876
2023-04-26T10:56:15.083Z,12.1408
2023-04-26T10:57:15.716Z,12.1255
2023-04-26T10:58:16.323Z,12.6202
2023-04-26T10:59:36.125Z,12.8358
2023-04-26T11:00:18.001Z,13.0124
2023-04-26T11:01:18.751Z,13.2188
2023-04-26T11:02:19.408Z,12.6384
2023-04-26T11:03:20.104Z,12.5279
2023-04-26T11:04:20.897Z,12.7738
2023-04-26T11:05:23.557Z,12.9164
2023-04-26T11:06:22.670Z,13.0996
2023-04-26T11:07:23.291Z,12.9268
2023-04-26T11:08:23.934Z,12.9267
2023-04-26T11:09:24.552Z,13.0185
2023-04-26T11:10:25.219Z,12.9443
2023-04-26T11:11:25.905Z,12.4367
2023-04-26T11:12:26.586Z,12.0512
2023-04-26T11:13:27.211Z,11.7850
2023-04-26T11:14:27.872Z,12.0457
2023-04-26T11:15:28.506Z,12.0065
2023-04-26T11:16:29.302Z,12.0677
2023-04-26T11:17:30.002Z,12.0637
2023-04-26T11:18:30.629Z,12.5018
2023-04-26T11:19:31.256Z,12.9816
2023-04-26T11:20:31.830Z,13.2325
2023-04-26T11:21:32.444Z,13.4751
2023-04-26T11:22:33.023Z,13.6259
2023-04-26T11:23:33.849Z,13.7585
2023-04-26T11:24:34.448Z,13.9025
2023-04-26T11:25:35.041Z,14.2327
2023-04-26T11:26:35.652Z,13.8188
2023-04-26T11:27:36.163Z,13.4797
2023-04-26T11:28:36.737Z,13.2162
2023-04-26T11:29:37.331Z,13.0850
2023-04-26T11:30:38.506Z,13.5494
2023-04-26T11:31:39.460Z,13.6430
2023-04-26T11:32:40.120Z,13.4297
2023-04-26T11:33:40.699Z,13.5410
2023-04-26T11:34:41.297Z,13.5160
2023-04-26T11:35:41.869Z,14.1454
2023-04-26T11:36:42.473Z,14.2369
2023-04-26T11:37:43.051Z,14.5786
2023-04-26T11:38:43.694Z,14.4418
2023-04-26T11:39:44.318Z,14.9128
2023-04-26T11:40:44.867Z,15.2952
2023-04-26T11:41:45.436Z,14.4528
2023-04-26T11:42:46.029Z,13.9547
2023-04-26T11:43:46.634Z,14.1218
2023-04-26T11:44:47.879Z,13.8010
2023-04-26T11:45:48.608Z,13.6768
2023-04-26T11:46:49.291Z,13.2633
2023-04-26T11:47:49.899Z,13.4479
2023-04-26T11:48:50.425Z,13.6189
2023-04-26T11:49:51.070Z,13.6200
2023-04-26T11:50:51.614Z,13.7290
2023-04-26T11:51:52.218Z,13.7705
2023-04-26T11:52:52.773Z,14.0398
2023-04-26T11:53:53.318Z,14.1058
2023-04-26T11:54:53.869Z,14.4420
2023-04-26T11:55:54.459Z,14.7396
2023-04-26T11:56:55.050Z,14.8338
2023-04-26T11:57:55.865Z,14.4397
2023-04-26T11:58:56.834Z,14.2372
2023-04-26T11:59:57.639Z,14.2335
2023-04-26T12:00:58.213Z,14.2769
2023-04-26T12:01:58.936Z,14.0701
2023-04-26T12:02:59.715Z,14.0155
2023-04-26T12:04:00.792Z,14.0782
2023-04-26T12:05:01.822Z,14.2669
2023-04-26T12:06:02.545Z,14.2558
2023-04-26T12:07:03.113Z,14.1194
2023-04-26T12:08:03.681Z,14.2836
2023-04-26T12:09:04.258Z,14.1259
2023-04-26T12:10:04.880Z,13.8963
2023-04-26T12:11:05.497Z,13.7903
2023-04-26T12:12:06.092Z,13.9389
2023-04-26T12:13:06.695Z,13.9740
2023-04-26T12:14:07.377Z,13.5247
2023-04-26T12:15:08.140Z,12.9867
2023-04-26T12:16:22.277Z,13.1533
2023-04-26T12:17:09.967Z,13.3922
2023-04-26T12:18:11.072Z,13.5808
2023-04-26T12:19:12.243Z,13.6068
2023-04-26T12:20:12.917Z,13.2979
2023-04-26T12:21:13.525Z,13.4157
2023-04-26T12:22:14.149Z,13.7911
2023-04-26T12:23:14.756Z,14.0748
2023-04-26T12:24:15.350Z,14.0014
2023-04-26T12:25:15.971Z,14.1201
2023-04-26T12:26:16.601Z,14.1800
2023-04-26T12:27:17.170Z,14.0804
2023-04-26T12:28:17.882Z,13.8665
2023-04-26T12:29:18.548Z,14.0166
2023-04-26T12:30:19.200Z,14.1806
2023-04-26T12:31:19.857Z,14.4266